sensor_id;sensor_type;location;lat;lon;timestamp;P1;durP1;ratioP1;P2;durP2;ratioP2
49678;SDS011;35570;48.218;16.326;2023-05-08T00:00:19;10.30;;;8.00;;
49678;SDS011;35570;48.218;16.326;2023-05-08T00:02:46;9.60;;;8.68;;
49678;SDS011;35570;48.218;16.326;2023-05-08T00:05:11;8.73;;;7.82;;
49678;SDS011;35570;48.218;16.326;2023-05-08T00:07:37;8.85;;;7.95;;
49678;SDS011;35570;48.218;16.326;2023-05-08T00:10:04;8.98;;;7.93;;
49678;SDS011;35570;48.218;16.326;2023-05-08T00:12:30;8.27;;;7.40;;
49678;SDS011;35570;48.218;16.326;2023-05-08T00:14:56;8.38;;;7.57;;
49678;SDS011;35570;48.218;16.326;2023-05-08T00:17:21;8.05;;;7.18;;
49678;SDS011;35570;48.218;16.326;2023-05-08T00:19:47;8.13;;;6.68;;
49678;SDS011;35570;48.218;16.326;2023-05-08T00:22:13;7.40;;;6.70;;
49678;SDS011;35570;48.218;16.326;2023-05-08T00:24:38;7.60;;;6.90;;
49678;SDS011;35570;48.218;16.326;2023-05-08T00:27:04;7.65;;;6.32;;
49678;SDS011;35570;48.218;16.326;2023-05-08T00:29:30;9.77;;;6.90;;
49678;SDS011;35570;48.218;16.326;2023-05-08T00:31:56;7.25;;;6.55;;
49678;SDS011;35570;48.218;16.326;2023-05-08T00:34:21;7.47;;;6.55;;
49678;SDS011;35570;48.218;16.326;2023-05-08T00:36:47;7.57;;;6.40;;
49678;SDS011;35570;48.218;16.326;2023-05-08T00:39:13;6.88;;;6.28;;
49678;SDS011;35570;48.218;16.326;2023-05-08T00:41:38;7.15;;;6.35;;
49678;SDS011;35570;48.218;16.326;2023-05-08T00:44:04;10.43;;;7.28;;
49678;SDS011;35570;48.218;16.326;2023-05-08T00:46:29;9.52;;;7.60;;
49678;SDS011;35570;48.218;16.326;2023-05-08T00:48:55;7.63;;;6.28;;
49678;SDS011;35570;48.218;16.326;2023-05-08T00:51:21;7.35;;;6.55;;
49678;SDS011;35570;48.218;16.326;2023-05-08T00:53:47;6.70;;;6.05;;
49678;SDS011;35570;48.218;16.326;2023-05-08T00:56:13;6.38;;;5.78;;
49678;SDS011;35570;48.218;16.326;2023-05-08T00:58:41;6.80;;;5.82;;
49678;SDS011;35570;48.218;16.326;2023-05-08T01:01:07;6.47;;;5.50;;
49678;SDS011;35570;48.218;16.326;2023-05-08T01:03:34;6.72;;;6.13;;
49678;SDS011;35570;48.218;16.326;2023-05-08T01:06:02;8.10;;;6.10;;
49678;SDS011;35570;48.218;16.326;2023-05-08T01:08:29;7.22;;;6.03;;
49678;SDS011;35570;48.218;16.326;2023-05-08T01:22:19;7.60;;;6.38;;
49678;SDS011;35570;48.218;16.326;2023-05-08T01:24:59;7.68;;;6.97;;
49678;SDS011;35570;48.218;16.326;2023-05-08T01:32:50;7.28;;;6.55;;
49678;SDS011;35570;48.218;16.326;2023-05-08T01:35:23;7.18;;;6.15;;
49678;SDS011;35570;48.218;16.326;2023-05-08T01:40:46;7.33;;;6.63;;
49678;SDS011;35570;48.218;16.326;2023-05-08T01:45:53;8.02;;;7.22;;
49678;SDS011;35570;48.218;16.326;2023-05-08T01:48:24;7.82;;;7.03;;
49678;SDS011;35570;48.218;16.326;2023-05-08T01:51:00;7.03;;;6.32;;
49678;SDS011;35570;48.218;16.326;2023-05-08T01:53:41;8.48;;;7.38;;
49678;SDS011;35570;48.218;16.326;2023-05-08T01:56:12;7.82;;;7.03;;
49678;SDS011;35570;48.218;16.326;2023-05-08T01:58:41;7.88;;;7.07;;
49678;SDS011;35570;48.218;16.326;2023-05-08T02:01:08;7.72;;;7.03;;
49678;SDS011;35570;48.218;16.326;2023-05-08T02:03:36;7.75;;;6.95;;
49678;SDS011;35570;48.218;16.326;2023-05-08T02:06:05;8.23;;;7.43;;
49678;SDS011;35570;48.218;16.326;2023-05-08T02:08:33;9.10;;;7.95;;
49678;SDS011;35570;48.218;16.326;2023-05-08T02:11:00;8.43;;;7.63;;
49678;SDS011;35570;48.218;16.326;2023-05-08T02:13:27;8.13;;;7.32;;
49678;SDS011;35570;48.218;16.326;2023-05-08T02:15:54;8.25;;;7.30;;
49678;SDS011;35570;48.218;16.326;2023-05-08T02:18:20;9.13;;;7.05;;
49678;SDS011;35570;48.218;16.326;2023-05-08T02:20:49;7.45;;;6.75;;
49678;SDS011;35570;48.218;16.326;2023-05-08T02:23:20;8.20;;;7.35;;
49678;SDS011;35570;48.218;16.326;2023-05-08T02:25:49;7.45;;;6.65;;
49678;SDS011;35570;48.218;16.326;2023-05-08T02:28:16;7.60;;;6.80;;
49678;SDS011;35570;48.218;16.326;2023-05-08T02:30:43;7.35;;;6.65;;
49678;SDS011;35570;48.218;16.326;2023-05-08T02:33:10;6.95;;;6.28;;
49678;SDS011;35570;48.218;16.326;2023-05-08T02:35:37;8.73;;;6.65;;
49678;SDS011;35570;48.218;16.326;2023-05-08T02:38:05;8.20;;;6.78;;
49678;SDS011;35570;48.218;16.326;2023-05-08T02:40:34;6.93;;;6.25;;
49678;SDS011;35570;48.218;16.326;2023-05-08T02:43:05;7.90;;;6.80;;
49678;SDS011;35570;48.218;16.326;2023-05-08T02:45:42;7.97;;;7.18;;
49678;SDS011;35570;48.218;16.326;2023-05-08T02:48:14;8.45;;;6.53;;
49678;SDS011;35570;48.218;16.326;2023-05-08T02:56:03;7.38;;;6.10;;
49678;SDS011;35570;48.218;16.326;2023-05-08T02:58:58;7.30;;;6.30;;
49678;SDS011;35570;48.218;16.326;2023-05-08T03:01:39;6.70;;;6.00;;
49678;SDS011;35570;48.218;16.326;2023-05-08T03:04:24;7.15;;;6.40;;
49678;SDS011;35570;48.218;16.326;2023-05-08T03:06:55;7.30;;;6.43;;
49678;SDS011;35570;48.218;16.326;2023-05-08T03:09:22;7.82;;;6.75;;
49678;SDS011;35570;48.218;16.326;2023-05-08T03:11:52;8.23;;;6.50;;
49678;SDS011;35570;48.218;16.326;2023-05-08T03:14:26;8.65;;;6.60;;
49678;SDS011;35570;48.218;16.326;2023-05-08T03:16:54;7.07;;;6.38;;
49678;SDS011;35570;48.218;16.326;2023-05-08T03:19:25;6.75;;;6.05;;
49678;SDS011;35570;48.218;16.326;2023-05-08T03:21:53;7.10;;;6.15;;
49678;SDS011;35570;48.218;16.326;2023-05-08T03:24:22;8.63;;;6.28;;
49678;SDS011;35570;48.218;16.326;2023-05-08T03:26:49;6.65;;;5.95;;
49678;SDS011;35570;48.218;16.326;2023-05-08T03:29:15;6.95;;;5.85;;
49678;SDS011;35570;48.218;16.326;2023-05-08T03:31:42;7.82;;;6.00;;
49678;SDS011;35570;48.218;16.326;2023-05-08T03:34:08;6.65;;;6.05;;
49678;SDS011;35570;48.218;16.326;2023-05-08T03:36:37;6.90;;;6.20;;
49678;SDS011;35570;48.218;16.326;2023-05-08T03:39:03;6.25;;;5.65;;
49678;SDS011;35570;48.218;16.326;2023-05-08T03:41:29;7.43;;;5.68;;
49678;SDS011;35570;48.218;16.326;2023-05-08T03:43:55;7.65;;;5.43;;
49678;SDS011;35570;48.218;16.326;2023-05-08T03:46:22;8.00;;;6.30;;
49678;SDS011;35570;48.218;16.326;2023-05-08T03:48:49;7.63;;;6.03;;
49678;SDS011;35570;48.218;16.326;2023-05-08T03:51:17;6.88;;;5.75;;
49678;SDS011;35570;48.218;16.326;2023-05-08T03:53:43;8.75;;;6.65;;
49678;SDS011;35570;48.218;16.326;2023-05-08T03:56:09;10.52;;;6.10;;
49678;SDS011;35570;48.218;16.326;2023-05-08T03:58:40;7.60;;;6.47;;
49678;SDS011;35570;48.218;16.326;2023-05-08T04:01:17;8.23;;;6.95;;
49678;SDS011;35570;48.218;16.326;2023-05-08T04:09:19;7.75;;;6.65;;
49678;SDS011;35570;48.218;16.326;2023-05-08T04:11:55;7.10;;;6.40;;
49678;SDS011;35570;48.218;16.326;2023-05-08T04:14:29;7.30;;;6.40;;
49678;SDS011;35570;48.218;16.326;2023-05-08T04:17:02;10.15;;;6.63;;
49678;SDS011;35570;48.218;16.326;2023-05-08T04:19:32;7.65;;;6.75;;
49678;SDS011;35570;48.218;16.326;2023-05-08T04:22:04;6.90;;;6.20;;
49678;SDS011;35570;48.218;16.326;2023-05-08T04:24:31;7.03;;;6.32;;
49678;SDS011;35570;48.218;16.326;2023-05-08T04:27:00;7.05;;;6.35;;
49678;SDS011;35570;48.218;16.326;2023-05-08T04:29:27;6.95;;;6.07;;
49678;SDS011;35570;48.218;16.326;2023-05-08T04:31:53;7.75;;;6.30;;
49678;SDS011;35570;48.218;16.326;2023-05-08T04:34:20;9.10;;;6.63;;
49678;SDS011;35570;48.218;16.326;2023-05-08T04:36:46;11.52;;;6.85;;
49678;SDS011;35570;48.218;16.326;2023-05-08T04:39:12;6.50;;;5.90;;
49678;SDS011;35570;48.218;16.326;2023-05-08T04:41:38;6.47;;;5.80;;
49678;SDS011;35570;48.218;16.326;2023-05-08T04:44:04;6.60;;;5.90;;
49678;SDS011;35570;48.218;16.326;2023-05-08T04:46:30;6.95;;;5.68;;
49678;SDS011;35570;48.218;16.326;2023-05-08T04:48:55;6.93;;;5.65;;
49678;SDS011;35570;48.218;16.326;2023-05-08T04:51:21;6.65;;;5.55;;
49678;SDS011;35570;48.218;16.326;2023-05-08T04:53:46;6.57;;;5.53;;
49678;SDS011;35570;48.218;16.326;2023-05-08T04:56:12;6.22;;;5.63;;
49678;SDS011;35570;48.218;16.326;2023-05-08T04:58:38;6.18;;;5.57;;
49678;SDS011;35570;48.218;16.326;2023-05-08T05:01:03;5.68;;;5.05;;
49678;SDS011;35570;48.218;16.326;2023-05-08T05:03:30;7.10;;;5.30;;
49678;SDS011;35570;48.218;16.326;2023-05-08T05:05:59;6.97;;;5.28;;
49678;SDS011;35570;48.218;16.326;2023-05-08T05:08:25;6.18;;;5.10;;
49678;SDS011;35570;48.218;16.326;2023-05-08T05:10:51;7.53;;;5.47;;
49678;SDS011;35570;48.218;16.326;2023-05-08T05:13:17;6.68;;;5.68;;
49678;SDS011;35570;48.218;16.326;2023-05-08T05:15:43;6.15;;;5.55;;
49678;SDS011;35570;48.218;16.326;2023-05-08T05:18:09;8.15;;;5.38;;
49678;SDS011;35570;48.218;16.326;2023-05-08T05:20:35;7.40;;;5.32;;
49678;SDS011;35570;48.218;16.326;2023-05-08T05:23:01;5.50;;;4.53;;
49678;SDS011;35570;48.218;16.326;2023-05-08T05:25:27;8.95;;;5.20;;
49678;SDS011;35570;48.218;16.326;2023-05-08T05:27:52;5.55;;;4.65;;
49678;SDS011;35570;48.218;16.326;2023-05-08T05:30:18;6.85;;;4.93;;
49678;SDS011;35570;48.218;16.326;2023-05-08T05:32:44;7.88;;;5.68;;
49678;SDS011;35570;48.218;16.326;2023-05-08T05:35:09;8.77;;;5.63;;
49678;SDS011;35570;48.218;16.326;2023-05-08T05:37:35;7.25;;;6.03;;
49678;SDS011;35570;48.218;16.326;2023-05-08T05:40:01;8.55;;;5.75;;
49678;SDS011;35570;48.218;16.326;2023-05-08T05:42:27;6.32;;;5.38;;
49678;SDS011;35570;48.218;16.326;2023-05-08T05:44:55;7.55;;;5.68;;
49678;SDS011;35570;48.218;16.326;2023-05-08T05:47:21;5.55;;;4.97;;
49678;SDS011;35570;48.218;16.326;2023-05-08T05:49:46;5.10;;;4.60;;
49678;SDS011;35570;48.218;16.326;2023-05-08T05:52:13;8.50;;;4.93;;
49678;SDS011;35570;48.218;16.326;2023-05-08T05:54:38;5.40;;;4.82;;
49678;SDS011;35570;48.218;16.326;2023-05-08T05:57:05;9.27;;;5.32;;
49678;SDS011;35570;48.218;16.326;2023-05-08T05:59:31;6.68;;;5.20;;
49678;SDS011;35570;48.218;16.326;2023-05-08T06:01:57;6.00;;;4.65;;
49678;SDS011;35570;48.218;16.326;2023-05-08T06:04:23;6.03;;;5.10;;
49678;SDS011;35570;48.218;16.326;2023-05-08T06:06:49;5.80;;;4.80;;
49678;SDS011;35570;48.218;16.326;2023-05-08T06:09:14;6.25;;;4.85;;
49678;SDS011;35570;48.218;16.326;2023-05-08T06:11:41;6.68;;;5.05;;
49678;SDS011;35570;48.218;16.326;2023-05-08T06:14:06;7.97;;;5.88;;
49678;SDS011;35570;48.218;16.326;2023-05-08T06:16:32;7.55;;;5.60;;
49678;SDS011;35570;48.218;16.326;2023-05-08T06:18:59;6.18;;;4.75;;
49678;SDS011;35570;48.218;16.326;2023-05-08T06:21:25;5.78;;;4.38;;
49678;SDS011;35570;48.218;16.326;2023-05-08T06:23:52;7.65;;;4.57;;
49678;SDS011;35570;48.218;16.326;2023-05-08T06:26:18;4.43;;;4.03;;
49678;SDS011;35570;48.218;16.326;2023-05-08T06:28:43;5.68;;;4.13;;
49678;SDS011;35570;48.218;16.326;2023-05-08T06:31:09;4.95;;;4.00;;
49678;SDS011;35570;48.218;16.326;2023-05-08T06:33:35;5.35;;;4.15;;
49678;SDS011;35570;48.218;16.326;2023-05-08T06:36:00;5.22;;;4.15;;
49678;SDS011;35570;48.218;16.326;2023-05-08T06:38:27;4.80;;;3.97;;
49678;SDS011;35570;48.218;16.326;2023-05-08T06:40:53;5.53;;;4.50;;
49678;SDS011;35570;48.218;16.326;2023-05-08T06:43:20;5.28;;;4.40;;
49678;SDS011;35570;48.218;16.326;2023-05-08T06:45:46;6.68;;;3.75;;
49678;SDS011;35570;48.218;16.326;2023-05-08T06:48:11;6.20;;;4.35;;
49678;SDS011;35570;48.218;16.326;2023-05-08T06:50:37;5.50;;;3.88;;
49678;SDS011;35570;48.218;16.326;2023-05-08T06:53:04;4.22;;;3.83;;
49678;SDS011;35570;48.218;16.326;2023-05-08T06:55:31;6.68;;;4.80;;
49678;SDS011;35570;48.218;16.326;2023-05-08T06:57:56;6.95;;;4.50;;
49678;SDS011;35570;48.218;16.326;2023-05-08T07:00:22;7.03;;;5.13;;
49678;SDS011;35570;48.218;16.326;2023-05-08T07:02:48;8.00;;;5.65;;
49678;SDS011;35570;48.218;16.326;2023-05-08T07:05:13;5.03;;;4.38;;
49678;SDS011;35570;48.218;16.326;2023-05-08T07:07:39;6.35;;;4.85;;
49678;SDS011;35570;48.218;16.326;2023-05-08T07:10:06;5.22;;;4.40;;
49678;SDS011;35570;48.218;16.326;2023-05-08T07:12:32;5.60;;;3.95;;
49678;SDS011;35570;48.218;16.326;2023-05-08T07:14:58;4.57;;;4.13;;
49678;SDS011;35570;48.218;16.326;2023-05-08T07:17:23;4.70;;;3.60;;
49678;SDS011;35570;48.218;16.326;2023-05-08T07:19:49;5.18;;;3.70;;
49678;SDS011;35570;48.218;16.326;2023-05-08T07:22:15;4.65;;;4.03;;
49678;SDS011;35570;48.218;16.326;2023-05-08T07:24:41;5.15;;;4.18;;
49678;SDS011;35570;48.218;16.326;2023-05-08T07:27:07;3.85;;;3.50;;
49678;SDS011;35570;48.218;16.326;2023-05-08T07:29:33;4.75;;;3.80;;
49678;SDS011;35570;48.218;16.326;2023-05-08T07:32:00;4.30;;;3.90;;
49678;SDS011;35570;48.218;16.326;2023-05-08T07:34:25;4.22;;;3.83;;
49678;SDS011;35570;48.218;16.326;2023-05-08T07:36:51;5.35;;;4.57;;
49678;SDS011;35570;48.218;16.326;2023-05-08T07:39:17;4.85;;;3.90;;
49678;SDS011;35570;48.218;16.326;2023-05-08T07:41:43;5.40;;;3.67;;
49678;SDS011;35570;48.218;16.326;2023-05-08T07:44:09;5.20;;;3.63;;
49678;SDS011;35570;48.218;16.326;2023-05-08T07:46:35;5.22;;;4.38;;
49678;SDS011;35570;48.218;16.326;2023-05-08T07:49:01;5.57;;;3.88;;
49678;SDS011;35570;48.218;16.326;2023-05-08T07:51:27;4.22;;;3.80;;
49678;SDS011;35570;48.218;16.326;2023-05-08T07:53:53;3.60;;;3.10;;
49678;SDS011;35570;48.218;16.326;2023-05-08T07:56:19;4.07;;;3.47;;
49678;SDS011;35570;48.218;16.326;2023-05-08T07:58:46;3.97;;;3.58;;
49678;SDS011;35570;48.218;16.326;2023-05-08T08:01:12;5.45;;;4.13;;
49678;SDS011;35570;48.218;16.326;2023-05-08T08:03:37;4.05;;;3.65;;
49678;SDS011;35570;48.218;16.326;2023-05-08T08:06:03;5.70;;;3.95;;
49678;SDS011;35570;48.218;16.326;2023-05-08T08:08:29;4.55;;;4.15;;
49678;SDS011;35570;48.218;16.326;2023-05-08T08:10:54;5.43;;;4.15;;
49678;SDS011;35570;48.218;16.326;2023-05-08T08:13:20;5.82;;;4.13;;
49678;SDS011;35570;48.218;16.326;2023-05-08T08:15:46;4.68;;;3.50;;
49678;SDS011;35570;48.218;16.326;2023-05-08T08:18:12;4.10;;;3.53;;
49678;SDS011;35570;48.218;16.326;2023-05-08T08:20:37;3.95;;;3.13;;
49678;SDS011;35570;48.218;16.326;2023-05-08T08:23:03;3.90;;;3.22;;
49678;SDS011;35570;48.218;16.326;2023-05-08T08:25:28;4.22;;;3.42;;
49678;SDS011;35570;48.218;16.326;2023-05-08T08:27:54;4.07;;;3.55;;
49678;SDS011;35570;48.218;16.326;2023-05-08T08:30:20;3.47;;;3.15;;
49678;SDS011;35570;48.218;16.326;2023-05-08T08:32:45;4.75;;;3.65;;
49678;SDS011;35570;48.218;16.326;2023-05-08T08:35:11;15.57;;;13.73;;
49678;SDS011;35570;48.218;16.326;2023-05-08T08:37:37;12.73;;;11.43;;
49678;SDS011;35570;48.218;16.326;2023-05-08T08:40:03;8.73;;;7.78;;
49678;SDS011;35570;48.218;16.326;2023-05-08T08:42:28;3.80;;;3.30;;
49678;SDS011;35570;48.218;16.326;2023-05-08T08:44:55;4.03;;;3.38;;
49678;SDS011;35570;48.218;16.326;2023-05-08T08:47:21;7.75;;;3.20;;
49678;SDS011;35570;48.218;16.326;2023-05-08T08:49:52;3.47;;;3.03;;
49678;SDS011;35570;48.218;16.326;2023-05-08T08:55:16;3.53;;;3.13;;
49678;SDS011;35570;48.218;16.326;2023-05-08T08:57:47;4.45;;;3.05;;
49678;SDS011;35570;48.218;16.326;2023-05-08T09:00:14;3.92;;;3.10;;
49678;SDS011;35570;48.218;16.326;2023-05-08T09:02:41;3.97;;;3.05;;
49678;SDS011;35570;48.218;16.326;2023-05-08T09:05:07;3.30;;;3.00;;
49678;SDS011;35570;48.218;16.326;2023-05-08T09:07:33;4.03;;;2.78;;
49678;SDS011;35570;48.218;16.326;2023-05-08T09:09:59;3.75;;;2.88;;
49678;SDS011;35570;48.218;16.326;2023-05-08T09:12:26;4.10;;;3.20;;
49678;SDS011;35570;48.218;16.326;2023-05-08T09:14:52;3.50;;;3.03;;
49678;SDS011;35570;48.218;16.326;2023-05-08T09:17:17;6.53;;;3.47;;
49678;SDS011;35570;48.218;16.326;2023-05-08T09:19:43;4.97;;;3.85;;
49678;SDS011;35570;48.218;16.326;2023-05-08T09:22:09;6.70;;;3.60;;
49678;SDS011;35570;48.218;16.326;2023-05-08T09:27:22;3.30;;;2.97;;
49678;SDS011;35570;48.218;16.326;2023-05-08T09:32:26;4.28;;;2.97;;
49678;SDS011;35570;48.218;16.326;2023-05-08T09:34:52;6.18;;;5.50;;
49678;SDS011;35570;48.218;16.326;2023-05-08T09:37:18;3.80;;;3.40;;
49678;SDS011;35570;48.218;16.326;2023-05-08T09:39:44;3.45;;;2.72;;
49678;SDS011;35570;48.218;16.326;2023-05-08T09:42:11;3.10;;;2.60;;
49678;SDS011;35570;48.218;16.326;2023-05-08T09:47:17;4.07;;;2.35;;
49678;SDS011;35570;48.218;16.326;2023-05-08T09:50:00;4.13;;;2.40;;
49678;SDS011;35570;48.218;16.326;2023-05-08T09:52:34;5.43;;;3.40;;
49678;SDS011;35570;48.218;16.326;2023-05-08T09:55:05;4.82;;;2.50;;
49678;SDS011;35570;48.218;16.326;2023-05-08T09:57:34;3.75;;;2.63;;
49678;SDS011;35570;48.218;16.326;2023-05-08T10:00:11;3.90;;;3.45;;
49678;SDS011;35570;48.218;16.326;2023-05-08T10:02:38;3.95;;;2.40;;
49678;SDS011;35570;48.218;16.326;2023-05-08T10:07:58;2.85;;;2.40;;
49678;SDS011;35570;48.218;16.326;2023-05-08T10:10:45;3.90;;;2.20;;
49678;SDS011;35570;48.218;16.326;2023-05-08T10:13:11;3.20;;;2.50;;
49678;SDS011;35570;48.218;16.326;2023-05-08T10:15:37;3.80;;;3.10;;
49678;SDS011;35570;48.218;16.326;2023-05-08T10:18:06;3.30;;;2.80;;
49678;SDS011;35570;48.218;16.326;2023-05-08T10:20:33;2.95;;;2.40;;
49678;SDS011;35570;48.218;16.326;2023-05-08T10:23:02;4.50;;;2.25;;
49678;SDS011;35570;48.218;16.326;2023-05-08T10:25:31;2.90;;;2.38;;
49678;SDS011;35570;48.218;16.326;2023-05-08T10:28:05;3.45;;;2.47;;
49678;SDS011;35570;48.218;16.326;2023-05-08T10:30:37;4.25;;;2.67;;
49678;SDS011;35570;48.218;16.326;2023-05-08T10:33:08;2.90;;;2.60;;
49678;SDS011;35570;48.218;16.326;2023-05-08T10:35:35;4.20;;;2.33;;
49678;SDS011;35570;48.218;16.326;2023-05-08T10:38:02;2.55;;;2.33;;
49678;SDS011;35570;48.218;16.326;2023-05-08T10:40:28;2.92;;;2.20;;
49678;SDS011;35570;48.218;16.326;2023-05-08T10:42:55;2.40;;;2.15;;
49678;SDS011;35570;48.218;16.326;2023-05-08T10:45:21;2.67;;;2.08;;
49678;SDS011;35570;48.218;16.326;2023-05-08T10:53:37;4.38;;;2.10;;
49678;SDS011;35570;48.218;16.326;2023-05-08T10:56:06;5.03;;;2.25;;
49678;SDS011;35570;48.218;16.326;2023-05-08T10:58:34;2.85;;;1.98;;
49678;SDS011;35570;48.218;16.326;2023-05-08T11:03:32;7.00;;;2.15;;
49678;SDS011;35570;48.218;16.326;2023-05-08T11:06:06;2.58;;;2.15;;
49678;SDS011;35570;48.218;16.326;2023-05-08T11:08:32;2.65;;;2.05;;
49678;SDS011;35570;48.218;16.326;2023-05-08T11:11:11;5.20;;;2.40;;
49678;SDS011;35570;48.218;16.326;2023-05-08T11:13:41;3.65;;;2.03;;
49678;SDS011;35570;48.218;16.326;2023-05-08T11:16:12;3.63;;;2.30;;
49678;SDS011;35570;48.218;16.326;2023-05-08T11:18:49;4.50;;;2.30;;
49678;SDS011;35570;48.218;16.326;2023-05-08T11:27:32;2.63;;;2.42;;
49678;SDS011;35570;48.218;16.326;2023-05-08T11:35:39;3.42;;;2.00;;
49678;SDS011;35570;48.218;16.326;2023-05-08T11:38:28;2.97;;;2.20;;
49678;SDS011;35570;48.218;16.326;2023-05-08T11:41:06;1.75;;;1.65;;
49678;SDS011;35570;48.218;16.326;2023-05-08T11:46:40;3.78;;;2.13;;
49678;SDS011;35570;48.218;16.326;2023-05-08T11:49:15;2.28;;;1.75;;
49678;SDS011;35570;48.218;16.326;2023-05-08T11:51:42;2.40;;;1.80;;
49678;SDS011;35570;48.218;16.326;2023-05-08T11:54:13;2.80;;;2.30;;
49678;SDS011;35570;48.218;16.326;2023-05-08T11:56:41;4.95;;;2.83;;
49678;SDS011;35570;48.218;16.326;2023-05-08T11:59:07;2.85;;;2.38;;
49678;SDS011;35570;48.218;16.326;2023-05-08T12:01:33;5.00;;;2.13;;
49678;SDS011;35570;48.218;16.326;2023-05-08T12:04:03;1.75;;;1.58;;
49678;SDS011;35570;48.218;16.326;2023-05-08T12:06:31;4.85;;;2.05;;
49678;SDS011;35570;48.218;16.326;2023-05-08T12:08:58;2.10;;;1.90;;
49678;SDS011;35570;48.218;16.326;2023-05-08T12:11:29;2.30;;;1.90;;
49678;SDS011;35570;48.218;16.326;2023-05-08T12:13:55;4.88;;;1.80;;
49678;SDS011;35570;48.218;16.326;2023-05-08T12:16:21;2.33;;;1.50;;
49678;SDS011;35570;48.218;16.326;2023-05-08T12:18:49;2.90;;;2.28;;
49678;SDS011;35570;48.218;16.326;2023-05-08T12:21:16;4.00;;;2.30;;
49678;SDS011;35570;48.218;16.326;2023-05-08T12:23:41;2.38;;;1.63;;
49678;SDS011;35570;48.218;16.326;2023-05-08T12:26:07;2.30;;;1.55;;
49678;SDS011;35570;48.218;16.326;2023-05-08T12:28:33;2.58;;;1.70;;
49678;SDS011;35570;48.218;16.326;2023-05-08T12:30:59;4.03;;;1.75;;
49678;SDS011;35570;48.218;16.326;2023-05-08T12:33:25;3.13;;;1.50;;
49678;SDS011;35570;48.218;16.326;2023-05-08T12:35:53;3.00;;;1.60;;
49678;SDS011;35570;48.218;16.326;2023-05-08T12:38:23;2.60;;;1.50;;
49678;SDS011;35570;48.218;16.326;2023-05-08T12:40:50;3.13;;;2.10;;
49678;SDS011;35570;48.218;16.326;2023-05-08T12:43:32;2.50;;;1.80;;
49678;SDS011;35570;48.218;16.326;2023-05-08T12:45:58;1.95;;;1.50;;
49678;SDS011;35570;48.218;16.326;2023-05-08T12:48:25;2.08;;;1.88;;
49678;SDS011;35570;48.218;16.326;2023-05-08T12:50:51;2.47;;;1.70;;
49678;SDS011;35570;48.218;16.326;2023-05-08T12:53:18;2.00;;;1.80;;
49678;SDS011;35570;48.218;16.326;2023-05-08T12:58:17;3.10;;;1.73;;
49678;SDS011;35570;48.218;16.326;2023-05-08T13:00:44;2.17;;;1.70;;
49678;SDS011;35570;48.218;16.326;2023-05-08T13:03:11;2.00;;;1.70;;
49678;SDS011;35570;48.218;16.326;2023-05-08T13:05:42;3.08;;;2.08;;
49678;SDS011;35570;48.218;16.326;2023-05-08T13:08:09;4.85;;;2.30;;
49678;SDS011;35570;48.218;16.326;2023-05-08T13:10:41;3.05;;;1.77;;
49678;SDS011;35570;48.218;16.326;2023-05-08T13:13:08;2.42;;;1.95;;
49678;SDS011;35570;48.218;16.326;2023-05-08T13:15:33;2.55;;;1.70;;
49678;SDS011;35570;48.218;16.326;2023-05-08T13:18:00;2.65;;;2.05;;
49678;SDS011;35570;48.218;16.326;2023-05-08T13:20:26;5.57;;;2.53;;
49678;SDS011;35570;48.218;16.326;2023-05-08T13:22:51;4.28;;;2.13;;
49678;SDS011;35570;48.218;16.326;2023-05-08T13:25:18;3.30;;;1.70;;
49678;SDS011;35570;48.218;16.326;2023-05-08T13:27:43;3.53;;;2.08;;
49678;SDS011;35570;48.218;16.326;2023-05-08T13:30:09;2.38;;;2.17;;
49678;SDS011;35570;48.218;16.326;2023-05-08T13:32:37;3.25;;;2.45;;
49678;SDS011;35570;48.218;16.326;2023-05-08T13:35:02;3.83;;;2.42;;
49678;SDS011;35570;48.218;16.326;2023-05-08T13:37:28;2.58;;;1.70;;
49678;SDS011;35570;48.218;16.326;2023-05-08T13:39:54;2.55;;;1.90;;
49678;SDS011;35570;48.218;16.326;2023-05-08T13:42:20;2.28;;;1.80;;
49678;SDS011;35570;48.218;16.326;2023-05-08T13:44:45;2.83;;;1.60;;
49678;SDS011;35570;48.218;16.326;2023-05-08T13:47:11;2.50;;;1.60;;
49678;SDS011;35570;48.218;16.326;2023-05-08T13:49:37;3.67;;;1.58;;
49678;SDS011;35570;48.218;16.326;2023-05-08T13:52:02;5.00;;;1.48;;
49678;SDS011;35570;48.218;16.326;2023-05-08T13:54:28;4.55;;;1.88;;
49678;SDS011;35570;48.218;16.326;2023-05-08T13:56:53;2.90;;;2.60;;
49678;SDS011;35570;48.218;16.326;2023-05-08T13:59:19;5.90;;;2.85;;
49678;SDS011;35570;48.218;16.326;2023-05-08T14:01:45;5.10;;;2.33;;
49678;SDS011;35570;48.218;16.326;2023-05-08T14:04:10;3.45;;;1.60;;
49678;SDS011;35570;48.218;16.326;2023-05-08T14:06:36;2.65;;;1.60;;
49678;SDS011;35570;48.218;16.326;2023-05-08T14:09:02;2.97;;;1.85;;
49678;SDS011;35570;48.218;16.326;2023-05-08T14:11:27;4.65;;;2.10;;
49678;SDS011;35570;48.218;16.326;2023-05-08T14:13:53;1.65;;;1.38;;
49678;SDS011;35570;48.218;16.326;2023-05-08T14:16:19;2.83;;;1.50;;
49678;SDS011;35570;48.218;16.326;2023-05-08T14:18:45;2.20;;;1.40;;
49678;SDS011;35570;48.218;16.326;2023-05-08T14:21:11;2.90;;;1.80;;
49678;SDS011;35570;48.218;16.326;2023-05-08T14:23:36;3.33;;;1.40;;
49678;SDS011;35570;48.218;16.326;2023-05-08T14:26:03;2.70;;;1.45;;
49678;SDS011;35570;48.218;16.326;2023-05-08T14:28:29;2.35;;;1.27;;
49678;SDS011;35570;48.218;16.326;2023-05-08T14:30:54;2.15;;;1.30;;
49678;SDS011;35570;48.218;16.326;2023-05-08T14:33:20;2.05;;;1.40;;
49678;SDS011;35570;48.218;16.326;2023-05-08T14:35:46;4.80;;;1.20;;
49678;SDS011;35570;48.218;16.326;2023-05-08T14:38:12;1.42;;;1.15;;
49678;SDS011;35570;48.218;16.326;2023-05-08T14:40:38;2.42;;;1.50;;
49678;SDS011;35570;48.218;16.326;2023-05-08T14:43:04;3.00;;;1.50;;
49678;SDS011;35570;48.218;16.326;2023-05-08T14:45:30;2.17;;;1.42;;
49678;SDS011;35570;48.218;16.326;2023-05-08T14:47:56;3.28;;;2.65;;
49678;SDS011;35570;48.218;16.326;2023-05-08T14:50:21;3.33;;;2.67;;
49678;SDS011;35570;48.218;16.326;2023-05-08T14:52:51;2.88;;;2.00;;
49678;SDS011;35570;48.218;16.326;2023-05-08T14:55:17;2.72;;;1.88;;
49678;SDS011;35570;48.218;16.326;2023-05-08T14:57:48;3.58;;;2.50;;
49678;SDS011;35570;48.218;16.326;2023-05-08T15:00:14;5.32;;;2.58;;
49678;SDS011;35570;48.218;16.326;2023-05-08T15:02:41;4.13;;;2.50;;
49678;SDS011;35570;48.218;16.326;2023-05-08T15:05:07;3.47;;;2.10;;
49678;SDS011;35570;48.218;16.326;2023-05-08T15:07:33;5.35;;;3.47;;
49678;SDS011;35570;48.218;16.326;2023-05-08T15:10:00;3.33;;;2.65;;
49678;SDS011;35570;48.218;16.326;2023-05-08T15:12:26;3.10;;;1.85;;
49678;SDS011;35570;48.218;16.326;2023-05-08T15:14:51;2.40;;;2.20;;
49678;SDS011;35570;48.218;16.326;2023-05-08T15:17:17;2.42;;;2.22;;
49678;SDS011;35570;48.218;16.326;2023-05-08T15:19:43;2.40;;;1.98;;
49678;SDS011;35570;48.218;16.326;2023-05-08T15:22:10;1.73;;;1.50;;
49678;SDS011;35570;48.218;16.326;2023-05-08T15:24:36;2.05;;;1.40;;
49678;SDS011;35570;48.218;16.326;2023-05-08T15:27:01;1.80;;;1.65;;
49678;SDS011;35570;48.218;16.326;2023-05-08T15:29:27;2.30;;;1.85;;
49678;SDS011;35570;48.218;16.326;2023-05-08T15:31:53;1.90;;;1.63;;
49678;SDS011;35570;48.218;16.326;2023-05-08T15:34:19;2.55;;;1.90;;
49678;SDS011;35570;48.218;16.326;2023-05-08T15:36:45;4.30;;;1.55;;
49678;SDS011;35570;48.218;16.326;2023-05-08T15:39:10;2.10;;;1.60;;
49678;SDS011;35570;48.218;16.326;2023-05-08T15:41:36;4.88;;;2.03;;
49678;SDS011;35570;48.218;16.326;2023-05-08T15:44:03;3.28;;;1.42;;
49678;SDS011;35570;48.218;16.326;2023-05-08T15:46:29;2.25;;;1.40;;